createdAt,value
2019-05-12T00:05:57.782Z,6.90
2019-05-12T00:12:02.446Z,6.80
2019-05-12T00:18:08.849Z,6.80
2019-05-12T00:24:12.647Z,6.90
2019-05-12T00:30:34.442Z,6.80
2019-05-12T00:36:38.972Z,6.70
2019-05-12T00:42:43.180Z,6.60
2019-05-12T00:48:48.234Z,6.60
2019-05-12T00:54:52.752Z,6.50
2019-05-12T01:00:59.617Z,6.50
2019-05-12T01:07:03.175Z,6.40
2019-05-12T01:13:08.594Z,6.40
2019-05-12T01:19:13.234Z,6.40
2019-05-12T01:25:17.697Z,6.40
2019-05-12T01:31:23.741Z,6.30
2019-05-12T01:37:28.128Z,6.30
2019-05-12T01:43:32.516Z,6.20
2019-05-12T01:49:38.234Z,6.10
2019-05-12T01:55:42.666Z,6.00
2019-05-12T02:01:48.811Z,6.00
2019-05-12T02:07:54.647Z,6.00
2019-05-12T02:13:58.934Z,6.00
2019-05-12T02:20:03.247Z,6.00
2019-05-12T02:26:08.281Z,6.00
2019-05-12T02:32:12.786Z,5.90
2019-05-12T02:38:17.054Z,5.90
2019-05-12T02:44:24.564Z,5.90
2019-05-12T02:50:45.971Z,6.00
2019-05-12T02:56:54.936Z,6.00
2019-05-12T03:02:59.005Z,6.00
2019-05-12T03:09:07.171Z,6.00
2019-05-12T03:15:14.866Z,6.00
2019-05-12T03:21:17.384Z,6.00
2019-05-12T03:27:25.306Z,6.10
2019-05-12T03:33:34.553Z,6.10
2019-05-12T03:39:34.403Z,6.10
2019-05-12T03:45:38.843Z,6.00
2019-05-12T03:51:45.703Z,6.00
2019-05-12T03:57:49.261Z,6.10
2019-05-12T04:03:54.246Z,6.10
2019-05-12T04:09:58.545Z,6.20
2019-05-12T04:16:04.883Z,6.30
2019-05-12T04:22:08.879Z,6.50
2019-05-12T04:28:15.048Z,6.60
2019-05-12T04:34:19.528Z,6.70
2019-05-12T04:40:24.798Z,6.70
2019-05-12T04:46:29.204Z,6.80
2019-05-12T04:52:35.137Z,6.80
2019-05-12T04:58:39.522Z,6.90
2019-05-12T05:04:44.200Z,7.40
2019-05-12T05:10:48.483Z,8.20
2019-05-12T05:16:54.253Z,9.10
2019-05-12T05:22:58.634Z,9.60
2019-05-12T05:29:04.267Z,9.30
2019-05-12T05:35:08.970Z,9.30
2019-05-12T05:41:13.534Z,9.40
2019-05-12T05:47:19.775Z,9.30
2019-05-12T05:53:24.343Z,9.90
2019-05-12T05:59:34.284Z,9.80
2019-05-12T06:05:38.202Z,9.90
2019-05-12T06:11:40.472Z,11.10
2019-05-12T06:17:44.697Z,11.60
2019-05-12T06:23:48.880Z,11.80
2019-05-12T06:30:01.048Z,12.70
2019-05-12T06:35:59.123Z,13.20
2019-05-12T06:42:12.368Z,13.60
2019-05-12T06:48:09.231Z,14.00
2019-05-12T06:54:16.266Z,14.70
2019-05-12T07:00:22.210Z,15.00
2019-05-12T07:06:26.646Z,15.70
2019-05-12T07:12:36.657Z,14.60
2019-05-12T07:18:37.182Z,14.40
2019-05-12T07:24:50.208Z,13.90
2019-05-12T07:30:47.436Z,13.60
2019-05-12T07:36:53.930Z,14.30
2019-05-12T07:42:58.600Z,14.90
2019-05-12T07:49:03.877Z,15.20
2019-05-12T07:55:08.284Z,15.60
2019-05-12T08:01:14.598Z,16.20
2019-05-12T08:07:19.808Z,16.10
2019-05-12T08:13:24.513Z,16.60
2019-05-12T08:19:28.761Z,16.30
2019-05-12T08:25:34.298Z,15.10
2019-05-12T08:31:40.811Z,14.80
2019-05-12T08:37:44.627Z,14.10
2019-05-12T08:43:54.483Z,13.80
2019-05-12T08:49:57.927Z,13.80
2019-05-12T08:56:06.574Z,13.20
2019-05-12T09:02:10.541Z,13.10
2019-05-12T09:08:13.839Z,14.10
2019-05-12T09:14:18.263Z,14.50
2019-05-12T09:20:24.232Z,14.00
2019-05-12T09:26:28.825Z,13.60
2019-05-12T09:32:33.869Z,14.00
2019-05-12T09:38:40.914Z,14.50
2019-05-12T09:44:44.132Z,14.80
2019-05-12T09:50:51.610Z,14.50
2019-05-12T09:56:58.304Z,14.50
2019-05-12T10:03:00.848Z,14.50
2019-05-12T10:09:08.708Z,14.60
2019-05-12T10:15:13.493Z,14.80
2019-05-12T10:21:18.026Z,14.30
2019-05-12T10:27:29.164Z,14.00
2019-05-12T10:33:28.314Z,14.70
2019-05-12T10:39:33.493Z,14.60
2019-05-12T10:45:37.930Z,14.10
2019-05-12T10:51:43.774Z,14.60
2019-05-12T10:57:52.888Z,15.10
2019-05-12T11:03:54.122Z,14.30
2019-05-12T11:10:03.560Z,14.70
2019-05-12T11:16:04.318Z,15.10
2019-05-12T11:22:08.792Z,15.40
2019-05-12T11:28:14.035Z,14.90
2019-05-12T11:34:18.443Z,14.60
2019-05-12T11:40:23.959Z,14.80
2019-05-12T11:46:28.246Z,15.10
2019-05-12T11:52:33.425Z,14.70
2019-05-12T11:58:41.386Z,14.80
2019-05-12T12:04:46.534Z,14.60
2019-05-12T12:10:50.788Z,14.80
2019-05-12T12:16:55.405Z,14.60
2019-05-12T12:23:00.118Z,14.60
2019-05-12T12:29:05.616Z,14.60
2019-05-12T12:35:13.038Z,14.60
2019-05-12T12:41:16.344Z,14.00
2019-05-12T12:47:23.709Z,14.90
2019-05-12T12:53:27.761Z,15.40
2019-05-12T12:59:33.353Z,14.60
2019-05-12T13:05:37.821Z,14.60
2019-05-12T13:11:44.292Z,14.40
2019-05-12T13:17:48.478Z,14.70
2019-05-12T13:23:53.899Z,14.70
2019-05-12T13:30:01.757Z,14.60
2019-05-12T13:36:04.567Z,14.70
2019-05-12T13:42:10.348Z,14.30
2019-05-12T13:48:19.863Z,14.40
2019-05-12T13:54:25.999Z,14.80
2019-05-12T14:00:28.187Z,14.70
2019-05-12T14:06:37.877Z,14.80
2019-05-12T14:12:38.665Z,14.20
2019-05-12T14:18:44.150Z,14.60
2019-05-12T14:24:48.497Z,14.20
2019-05-12T14:30:54.489Z,14.00
2019-05-12T14:37:05.422Z,14.10
2019-05-12T14:43:04.895Z,13.90
2019-05-12T14:49:09.140Z,14.00
2019-05-12T14:55:13.890Z,14.10
2019-05-12T15:01:18.390Z,14.00
2019-05-12T15:07:23.671Z,13.80
2019-05-12T15:13:28.024Z,13.80
2019-05-12T15:19:33.493Z,13.50
2019-05-12T15:25:37.840Z,13.50
2019-05-12T15:31:52.755Z,13.80
2019-05-12T15:37:48.203Z,13.30
2019-05-12T15:43:53.661Z,13.50
2019-05-12T15:49:58.367Z,13.50
2019-05-12T15:56:05.879Z,13.40
2019-05-12T16:02:14.663Z,13.30
2019-05-12T16:08:14.647Z,13.20
2019-05-12T16:14:19.045Z,13.10
2019-05-12T16:20:23.401Z,12.90
2019-05-12T16:26:27.684Z,12.80
2019-05-12T16:32:39.227Z,12.90
2019-05-12T16:38:38.087Z,12.90
2019-05-12T16:44:44.022Z,12.70
2019-05-12T16:50:48.524Z,12.60
2019-05-12T16:56:53.769Z,12.40
2019-05-12T17:02:58.206Z,12.50
2019-05-12T17:09:03.364Z,12.40
2019-05-12T17:15:07.921Z,12.20
2019-05-12T17:21:14.307Z,12.10
2019-05-12T17:27:23.898Z,12.30
2019-05-12T17:33:27.457Z,12.20
2019-05-12T17:39:35.553Z,11.90
2019-05-12T17:45:36.421Z,11.90
2019-05-12T17:51:40.632Z,11.80
2019-05-12T17:57:44.835Z,11.70
2019-05-12T18:03:50.712Z,11.70
2019-05-12T18:09:56.655Z,11.60
2019-05-12T18:16:03.585Z,11.50
2019-05-12T18:22:09.245Z,11.40
2019-05-12T18:28:14.162Z,11.40
2019-05-12T18:34:19.979Z,11.20
2019-05-12T18:40:27.620Z,11.10
2019-05-12T18:46:36.214Z,11.00
2019-05-12T18:52:43.042Z,10.90
2019-05-12T18:58:44.484Z,10.80
2019-05-12T19:04:48.812Z,10.60
2019-05-12T19:10:53.200Z,10.40
2019-05-12T19:17:00.468Z,10.40
2019-05-12T19:23:04.832Z,10.20
2019-05-12T19:29:09.320Z,10.10
2019-05-12T19:35:18.001Z,10.00
2019-05-12T19:41:20.031Z,9.90
2019-05-12T19:47:33.184Z,9.70
2019-05-12T19:53:30.383Z,9.60
2019-05-12T19:59:34.673Z,9.50
2019-05-12T20:05:38.999Z,9.40
2019-05-12T20:11:43.215Z,9.30
2019-05-12T20:17:48.843Z,9.20
2019-05-12T20:23:54.383Z,9.10
2019-05-12T20:29:58.799Z,9.20
2019-05-12T20:36:04.134Z,9.00
2019-05-12T20:42:08.561Z,8.80
2019-05-12T20:48:14.406Z,8.70
2019-05-12T20:54:18.897Z,8.60
2019-05-12T21:00:24.406Z,8.50
2019-05-12T21:06:32.986Z,8.40
2019-05-12T21:12:40.026Z,8.30
2019-05-12T21:18:47.824Z,8.20
2019-05-12T21:24:47.172Z,8.20
2019-05-12T21:30:53.123Z,8.10
2019-05-12T21:36:59.006Z,8.00
2019-05-12T21:43:04.180Z,8.00
2019-05-12T21:49:11.843Z,8.00
2019-05-12T21:55:21.806Z,7.90
2019-05-12T22:01:21.136Z,7.80
2019-05-12T22:07:29.555Z,7.80
2019-05-12T22:13:31.440Z,7.80
2019-05-12T22:19:38.039Z,7.80
2019-05-12T22:25:43.550Z,7.80
2019-05-12T22:31:48.341Z,7.80
2019-05-12T22:37:53.535Z,7.80
2019-05-12T22:43:58.006Z,7.80
2019-05-12T22:50:04.189Z,7.70
2019-05-12T22:56:12.667Z,7.70
2019-05-12T23:02:16.020Z,7.60
2019-05-12T23:08:20.371Z,7.60
2019-05-12T23:14:25.197Z,7.50
2019-05-12T23:20:30.951Z,7.50
2019-05-12T23:26:42.025Z,7.40
2019-05-12T23:32:45.291Z,7.40
2019-05-12T23:38:51.974Z,7.40
2019-05-12T23:44:53.562Z,7.30
2019-05-12T23:50:57.852Z,7.30
2019-05-12T23:57:03.902Z,7.20
